Airfield :
LOGIN :

Register | Disclaimer

   EN    FR    IT 

 










Legend :    VFR   Marginal VFR   IFR   Intensive IFR   Very Intensive IFR
Visi :
Ceiling :
>= 8 km
>= 3000ft
5 to 8 km
1000 to 3000 ft
1500m to 5 km
500 to 1000 ft
800 to 1500m
200 to 500 ft
< 800m
< 200 ft
Symbols :   Thunderstorms  Fog  Heavy snow  Heavy precipitations  Wind > 20 kt
SIGMETs :     Misc.  Thunderstorms  Icing  Turbulence  Mountain Waves  Volcanic Ashes







- Airport Elevation : 1234 ft
- IATA code : LUX


ELLX - Luxembourg Findel

CURRENT METAR :
  • 171050Z 02008KT 340V060 9999 FEW030TCU 24/15 Q1018 NOSIG

EXPIRED METARs :
  • 171020Z 03009KT 9999 FEW025TCU 22/14 Q1018 NOSIG
  • 170950Z 04011KT 010V070 9999 FEW025CB SCT070 22/15 Q1018 NOSIG
  • 170920Z 03011KT 360V070 9999 FEW025CB 22/15 Q1018 NOSIG
  • 170850Z 04011KT 9999 FEW015CB 21/16 Q1017 NOSIG
  • 170820Z 05011KT 010V070 9999 FEW015CB SCT060 19/15 Q1017 NOSIG

TAF TAF ELLX
Valid from the 17 at 06:00 until the 18 at 12:00 UTC


170500Z 1706/1812 34010KT CAVOK
TEMPO 1708/1717 34015G25KT SHRA SCT010 SCT025TCU
PROB30
TEMPO 1708/1712 4000 TSRA BKN020CB
BECMG 1720/1723 34005KT
ATIS : +352 4798 27300
Met : +352 4798 27010 / 27050
No reported NOTAMs for that airfield.



MET'MAP, your aeronautical weather chart ! - Copyright ORBIFLY December 2007 - Disclaimer

ORBIFLY MET'MAP TEAM :

Programming & Development : Alexandra Zaïnal
Concept & Development : Baudouin d'Aumeries
Co-Development & Prog : Marc-Olivier Méhu
Technical & hardware support : Manuel Goepfert

Contact : metmap@orbifly.com




SOURCES & CREDITS :

   NOAA